PRDSF SBCA-SBRJ
Flight info
| Callsign | PRDSF |
|---|---|
| Flight time | N/A |
| Altitude | 25000 |
| Route | VUGLA UM548 KOXAG UM400 KOLBI |
| Aircraft | BE9L/L-SBDFGRY/SB1 |
Departure
| Time | 2026-05-08 23:22 |
|---|---|
| Airport | Coronel Adalberto Mendes da Silva Airport (SBCA) |
Arrival
| Time | N/A |
|---|---|
| Airport | Santos Dumont Airport (SBRJ) |
| Time | Latitude | Longitude | Altitude | Speed | Heading |
|---|---|---|---|---|---|
| 2026-05-08 23:15 | -25.00238 | -53.50076 | 2459 ft | 0 kts | 135° |
| 2026-05-08 23:18 | -25.00244 | -53.50068 | 2458 ft | 2 kts | 116° |
| 2026-05-08 23:18 | -25.00241 | -53.50053 | 2458 ft | 1 kts | 49° |
| 2026-05-08 23:18 | -25.00239 | -53.50051 | 2458 ft | 0 kts | 45° |
| 2026-05-08 23:18 | -25.00223 | -53.50050 | 2459 ft | 5 kts | 336° |
| 2026-05-08 23:19 | -25.00192 | -53.50083 | 2459 ft | 5 kts | 316° |
| 2026-05-08 23:19 | -25.00172 | -53.50105 | 2460 ft | 3 kts | 316° |
| 2026-05-08 23:19 | -25.00159 | -53.50118 | 2460 ft | 1 kts | 318° |
| 2026-05-08 23:19 | -25.00127 | -53.50123 | 2460 ft | 11 kts | 31° |
| 2026-05-08 23:20 | -25.00043 | -53.50102 | 2460 ft | 14 kts | 323° |
| 2026-05-08 23:20 | -24.99986 | -53.50166 | 2463 ft | 8 kts | 307° |
| 2026-05-08 23:20 | -24.99958 | -53.50200 | 2463 ft | 3 kts | 316° |
| 2026-05-08 23:20 | -24.99952 | -53.50206 | 2464 ft | 0 kts | 317° |
| 2026-05-08 23:21 | -24.99866 | -53.50289 | 2467 ft | 41 kts | 316° |
| 2026-05-08 23:21 | -24.99664 | -53.50521 | 2474 ft | 39 kts | 315° |
| 2026-05-08 23:21 | -24.99496 | -53.50707 | 2479 ft | 21 kts | 308° |
| 2026-05-08 23:21 | -24.99532 | -53.50646 | 2478 ft | 22 kts | 135° |
| 2026-05-08 23:22 | -24.99907 | -53.50238 | 2504 ft | 113 kts | 137° |
| 2026-05-08 23:22 | -25.00538 | -53.49560 | 2939 ft | 134 kts | 139° |
| 2026-05-08 23:22 | -25.01188 | -53.48934 | 3844 ft | 123 kts | 149° |
| 2026-05-08 23:22 | -25.02039 | -53.48502 | 4346 ft | 141 kts | 168° |
| 2026-05-08 23:23 | -25.02918 | -53.47869 | 4840 ft | 162 kts | 142° |
| 2026-05-08 23:23 | -25.03807 | -53.47104 | 5230 ft | 164 kts | 145° |
| 2026-05-08 23:23 | -25.04752 | -53.46346 | 5345 ft | 170 kts | 147° |
| 2026-05-08 23:23 | -25.05727 | -53.45590 | 5506 ft | 172 kts | 147° |
| 2026-05-08 23:24 | -25.06716 | -53.44831 | 5671 ft | 174 kts | 147° |
| 2026-05-08 23:24 | -25.07712 | -53.44071 | 5832 ft | 175 kts | 147° |
| 2026-05-08 23:24 | -25.08728 | -53.43297 | 5973 ft | 178 kts | 147° |
| 2026-05-08 23:24 | -25.09752 | -53.42518 | 6135 ft | 179 kts | 147° |
| 2026-05-08 23:25 | -25.10791 | -53.41726 | 6269 ft | 182 kts | 147° |
| 2026-05-08 23:25 | -25.11827 | -53.40937 | 6436 ft | 182 kts | 147° |
| 2026-05-08 23:25 | -25.12874 | -53.40139 | 6576 ft | 184 kts | 146° |
| 2026-05-08 23:25 | -25.13934 | -53.39331 | 6702 ft | 186 kts | 147° |
| 2026-05-08 23:26 | -25.14989 | -53.38527 | 6881 ft | 186 kts | 146° |
| 2026-05-08 23:26 | -25.16052 | -53.37719 | 6999 ft | 187 kts | 147° |
| 2026-05-08 23:26 | -25.17124 | -53.36901 | 7148 ft | 187 kts | 146° |
| 2026-05-08 23:26 | -25.18200 | -53.36086 | 7294 ft | 188 kts | 148° |
| 2026-05-08 23:27 | -25.19273 | -53.35266 | 7429 ft | 188 kts | 147° |
| 2026-05-08 23:27 | -25.20359 | -53.34439 | 7559 ft | 189 kts | 148° |
| 2026-05-08 23:27 | -25.21454 | -53.33601 | 7642 ft | 192 kts | 148° |
| 2026-05-08 23:27 | -25.22554 | -53.32761 | 7765 ft | 193 kts | 149° |
| 2026-05-08 23:28 | -25.23675 | -53.31905 | 7895 ft | 195 kts | 147° |
| 2026-05-08 23:28 | -25.24780 | -53.31065 | 8112 ft | 194 kts | 148° |
| 2026-05-08 23:28 | -25.25902 | -53.30206 | 8252 ft | 196 kts | 149° |
| 2026-05-08 23:28 | -25.27045 | -53.29336 | 8409 ft | 198 kts | 147° |
| 2026-05-08 23:29 | -25.28192 | -53.28458 | 8516 ft | 203 kts | 147° |
| 2026-05-08 23:29 | -25.29343 | -53.27580 | 8746 ft | 200 kts | 148° |
| 2026-05-08 23:29 | -25.30501 | -53.26696 | 8883 ft | 204 kts | 147° |
| 2026-05-08 23:29 | -25.31665 | -53.25807 | 9084 ft | 202 kts | 149° |
| 2026-05-08 23:30 | -25.32839 | -53.24907 | 9167 ft | 206 kts | 146° |
| 2026-05-08 23:30 | -25.34021 | -53.24003 | 9338 ft | 206 kts | 148° |
| 2026-05-08 23:30 | -25.35213 | -53.23091 | 9479 ft | 207 kts | 148° |
| 2026-05-08 23:30 | -25.36410 | -53.22177 | 9601 ft | 210 kts | 148° |
| 2026-05-08 23:31 | -25.37606 | -53.21259 | 9771 ft | 210 kts | 148° |
| 2026-05-08 23:31 | -25.38815 | -53.20336 | 9908 ft | 212 kts | 148° |
| 2026-05-08 23:31 | -25.40032 | -53.19403 | 10059 ft | 212 kts | 149° |
| 2026-05-08 23:31 | -25.41252 | -53.18472 | 10199 ft | 212 kts | 148° |
| 2026-05-08 23:32 | -25.42471 | -53.17541 | 10366 ft | 212 kts | 148° |
| 2026-05-08 23:32 | -25.43683 | -53.16607 | 10488 ft | 214 kts | 149° |
| 2026-05-08 23:32 | -25.44907 | -53.15675 | 10649 ft | 212 kts | 149° |
| 2026-05-08 23:32 | -25.46130 | -53.14734 | 10766 ft | 213 kts | 148° |
| 2026-05-08 23:33 | -25.47340 | -53.13807 | 10931 ft | 212 kts | 150° |
| 2026-05-08 23:33 | -25.48566 | -53.12868 | 11036 ft | 214 kts | 148° |
| 2026-05-08 23:33 | -25.49792 | -53.11928 | 11167 ft | 215 kts | 148° |
| 2026-05-08 23:33 | -25.51027 | -53.10980 | 11306 ft | 215 kts | 148° |
| 2026-05-08 23:34 | -25.52261 | -53.10032 | 11420 ft | 217 kts | 149° |
| 2026-05-08 23:34 | -25.53501 | -53.09079 | 11549 ft | 218 kts | 149° |
| 2026-05-08 23:34 | -25.54745 | -53.08124 | 11693 ft | 218 kts | 149° |
| 2026-05-08 23:34 | -25.55996 | -53.07165 | 11818 ft | 219 kts | 149° |
| 2026-05-08 23:35 | -25.57243 | -53.06205 | 11968 ft | 218 kts | 148° |
| 2026-05-08 23:35 | -25.58472 | -53.05206 | 12063 ft | 222 kts | 136° |
| 2026-05-08 23:35 | -25.59162 | -53.03719 | 12157 ft | 217 kts | 91° |
| 2026-05-08 23:35 | -25.59154 | -53.02113 | 12318 ft | 209 kts | 79° |
| 2026-05-08 23:36 | -25.59120 | -53.00499 | 12461 ft | 209 kts | 80° |
| 2026-05-08 23:36 | -25.59101 | -52.98871 | 12561 ft | 213 kts | 80° |
| 2026-05-08 23:36 | -25.59091 | -52.97243 | 12684 ft | 213 kts | 79° |
| 2026-05-08 23:36 | -25.59086 | -52.95605 | 12786 ft | 214 kts | 79° |
| 2026-05-08 23:37 | -25.59088 | -52.93960 | 12938 ft | 213 kts | 81° |
| 2026-05-08 23:37 | -25.59085 | -52.92318 | 13022 ft | 214 kts | 80° |
| 2026-05-08 23:37 | -25.59086 | -52.90679 | 13187 ft | 212 kts | 81° |
| 2026-05-08 23:37 | -25.59089 | -52.89024 | 13266 ft | 215 kts | 79° |
| 2026-05-08 23:38 | -25.59090 | -52.87354 | 13346 ft | 218 kts | 79° |
| 2026-05-08 23:38 | -25.59093 | -52.85696 | 13498 ft | 216 kts | 80° |
| 2026-05-08 23:38 | -25.59092 | -52.84024 | 13619 ft | 216 kts | 81° |
| 2026-05-08 23:38 | -25.59092 | -52.82357 | 13724 ft | 216 kts | 80° |
| 2026-05-08 23:39 | -25.59093 | -52.80693 | 13840 ft | 217 kts | 81° |
| 2026-05-08 23:39 | -25.59091 | -52.79015 | 13922 ft | 219 kts | 82° |
| 2026-05-08 23:39 | -25.59096 | -52.77336 | 14067 ft | 216 kts | 80° |
| 2026-05-08 23:39 | -25.59091 | -52.75674 | 14172 ft | 217 kts | 81° |
| 2026-05-08 23:40 | -25.59092 | -52.74009 | 14310 ft | 217 kts | 79° |
| 2026-05-08 23:40 | -25.59091 | -52.72329 | 14413 ft | 218 kts | 83° |
| 2026-05-08 23:40 | -25.59098 | -52.70637 | 14468 ft | 219 kts | 79° |
| 2026-05-08 23:40 | -25.59088 | -52.68956 | 14553 ft | 221 kts | 79° |
| 2026-05-08 23:41 | -25.59089 | -52.67257 | 14674 ft | 220 kts | 80° |
| 2026-05-08 23:41 | -25.59090 | -52.65568 | 14784 ft | 219 kts | 78° |
| 2026-05-08 23:41 | -25.59089 | -52.63887 | 14892 ft | 221 kts | 81° |
| 2026-05-08 23:41 | -25.59086 | -52.62186 | 15047 ft | 218 kts | 79° |
| 2026-05-08 23:42 | -25.59084 | -52.60498 | 15101 ft | 221 kts | 79° |
| 2026-05-08 23:42 | -25.59082 | -52.58815 | 15230 ft | 219 kts | 79° |
| 2026-05-08 23:42 | -25.59078 | -52.57112 | 15327 ft | 222 kts | 81° |
| 2026-05-08 23:42 | -25.59090 | -52.55456 | 15524 ft | 213 kts | 81° |
| 2026-05-08 23:43 | -25.59086 | -52.53801 | 15575 ft | 213 kts | 81° |
| 2026-05-08 23:43 | -25.59085 | -52.52143 | 15565 ft | 217 kts | 79° |
| 2026-05-08 23:43 | -25.59075 | -52.50469 | 15580 ft | 219 kts | 80° |
| 2026-05-08 23:43 | -25.59073 | -52.48789 | 15645 ft | 217 kts | 79° |
| 2026-05-08 23:44 | -25.59070 | -52.47107 | 15669 ft | 220 kts | 81° |
| 2026-05-08 23:44 | -25.59066 | -52.45416 | 15720 ft | 220 kts | 80° |
| 2026-05-08 23:44 | -25.59062 | -52.43728 | 15758 ft | 219 kts | 80° |
| 2026-05-08 23:44 | -25.59057 | -52.42037 | 15785 ft | 219 kts | 80° |
| 2026-05-08 23:45 | -25.59054 | -52.40348 | 15817 ft | 220 kts | 80° |
| 2026-05-08 23:45 | -25.59051 | -52.38662 | 15896 ft | 217 kts | 80° |
| 2026-05-08 23:45 | -25.59046 | -52.37012 | 16017 ft | 212 kts | 80° |
| 2026-05-08 23:45 | -25.59047 | -52.35403 | 16149 ft | 207 kts | 79° |
| 2026-05-08 23:46 | -25.59039 | -52.33822 | 16259 ft | 204 kts | 79° |
| 2026-05-08 23:46 | -25.59033 | -52.32242 | 16361 ft | 206 kts | 78° |
| 2026-05-08 23:46 | -25.59031 | -52.30652 | 16472 ft | 207 kts | 78° |
| 2026-05-08 23:46 | -25.59021 | -52.29053 | 16584 ft | 209 kts | 79° |
| 2026-05-08 23:47 | -25.59016 | -52.27439 | 16697 ft | 210 kts | 79° |
| 2026-05-08 23:47 | -25.59012 | -52.25816 | 16808 ft | 212 kts | 79° |
| 2026-05-08 23:47 | -25.59006 | -52.24182 | 16928 ft | 213 kts | 79° |
| 2026-05-08 23:47 | -25.59003 | -52.22543 | 17045 ft | 214 kts | 79° |
| 2026-05-08 23:48 | -25.58995 | -52.20891 | 17144 ft | 215 kts | 79° |
| 2026-05-08 23:48 | -25.58990 | -52.19234 | 17246 ft | 216 kts | 79° |
| 2026-05-08 23:48 | -25.58983 | -52.17569 | 17365 ft | 217 kts | 79° |
| 2026-05-08 23:48 | -25.58976 | -52.15897 | 17486 ft | 217 kts | 80° |
| 2026-05-08 23:49 | -25.58969 | -52.14228 | 17596 ft | 218 kts | 79° |
| 2026-05-08 23:49 | -25.58963 | -52.12550 | 17724 ft | 218 kts | 80° |
| 2026-05-08 23:49 | -25.58957 | -52.10873 | 17847 ft | 218 kts | 79° |
| 2026-05-08 23:49 | -25.58947 | -52.09199 | 17982 ft | 217 kts | 80° |
| 2026-05-08 23:50 | -25.58941 | -52.07531 | 18110 ft | 216 kts | 79° |
| 2026-05-08 23:50 | -25.58935 | -52.05895 | 18256 ft | 210 kts | 79° |
| 2026-05-08 23:50 | -25.58928 | -52.04296 | 18389 ft | 205 kts | 79° |
| 2026-05-08 23:50 | -25.58922 | -52.02742 | 18541 ft | 200 kts | 79° |
| 2026-05-08 23:51 | -25.58916 | -52.01227 | 18675 ft | 194 kts | 77° |
| 2026-05-08 23:51 | -25.58906 | -51.99749 | 18798 ft | 190 kts | 78° |
| 2026-05-08 23:51 | -25.58899 | -51.98304 | 18897 ft | 186 kts | 77° |
| 2026-05-08 23:51 | -25.58891 | -51.96878 | 18982 ft | 185 kts | 78° |
| 2026-05-08 23:52 | -25.58882 | -51.95455 | 19047 ft | 185 kts | 79° |
| 2026-05-08 23:52 | -25.58873 | -51.94033 | 19118 ft | 184 kts | 80° |
| 2026-05-08 23:52 | -25.58866 | -51.92613 | 19207 ft | 187 kts | 77° |
| 2026-05-08 23:52 | -25.58852 | -51.91146 | 19283 ft | 194 kts | 79° |
| 2026-05-08 23:53 | -25.58845 | -51.89627 | 19372 ft | 200 kts | 78° |
| 2026-05-08 23:53 | -25.58837 | -51.88059 | 19446 ft | 207 kts | 79° |
| 2026-05-08 23:53 | -25.58825 | -51.86442 | 19518 ft | 213 kts | 79° |
| 2026-05-08 23:53 | -25.58815 | -51.84779 | 19587 ft | 219 kts | 81° |
| 2026-05-08 23:54 | -25.58808 | -51.83074 | 19671 ft | 224 kts | 80° |
| 2026-05-08 23:54 | -25.58798 | -51.81326 | 19756 ft | 229 kts | 81° |
| 2026-05-08 23:54 | -25.58788 | -51.79548 | 19831 ft | 233 kts | 81° |
| 2026-05-08 23:55 | -25.58764 | -51.75906 | 19985 ft | 240 kts | 82° |
| 2026-05-08 23:55 | -25.58751 | -51.74049 | 20070 ft | 243 kts | 82° |
| 2026-05-08 23:55 | -25.58738 | -51.72171 | 20143 ft | 245 kts | 82° |
| 2026-05-08 23:55 | -25.58725 | -51.70281 | 20214 ft | 247 kts | 82° |
| 2026-05-08 23:56 | -25.58712 | -51.68374 | 20301 ft | 248 kts | 82° |
| 2026-05-08 23:56 | -25.58699 | -51.66469 | 20432 ft | 247 kts | 82° |
| 2026-05-08 23:56 | -25.58687 | -51.64575 | 20549 ft | 246 kts | 82° |
| 2026-05-08 23:56 | -25.58671 | -51.62686 | 20676 ft | 245 kts | 82° |
| 2026-05-08 23:57 | -25.58657 | -51.60805 | 20799 ft | 244 kts | 81° |
| 2026-05-08 23:57 | -25.58643 | -51.58927 | 20921 ft | 244 kts | 81° |
| 2026-05-08 23:57 | -25.58627 | -51.57057 | 21040 ft | 243 kts | 82° |
| 2026-05-08 23:57 | -25.58613 | -51.55192 | 21172 ft | 242 kts | 81° |
| 2026-05-08 23:58 | -25.58594 | -51.53332 | 21297 ft | 241 kts | 82° |
| 2026-05-08 23:58 | -25.58581 | -51.51481 | 21418 ft | 241 kts | 82° |
| 2026-05-08 23:58 | -25.58565 | -51.49632 | 21545 ft | 240 kts | 83° |
| 2026-05-08 23:58 | -25.58552 | -51.47786 | 21672 ft | 239 kts | 82° |
| 2026-05-08 23:59 | -25.58534 | -51.45952 | 21813 ft | 238 kts | 82° |
| 2026-05-08 23:59 | -25.58522 | -51.44137 | 21983 ft | 234 kts | 81° |
| 2026-05-08 23:59 | -25.58502 | -51.42347 | 22152 ft | 232 kts | 82° |
| 2026-05-08 23:59 | -25.58487 | -51.40580 | 22322 ft | 229 kts | 82° |
| 2026-05-09 00:00 | -25.58499 | -51.38829 | 22489 ft | 229 kts | 92° |
| 2026-05-09 00:00 | -25.58533 | -51.37117 | 22678 ft | 219 kts | 79° |
| 2026-05-09 00:00 | -25.58465 | -51.35444 | 22858 ft | 217 kts | 79° |
| 2026-05-09 00:00 | -25.58415 | -51.33781 | 23023 ft | 214 kts | 79° |
| 2026-05-09 00:01 | -25.58373 | -51.32142 | 23183 ft | 211 kts | 79° |
| 2026-05-09 00:01 | -25.58340 | -51.30533 | 23340 ft | 208 kts | 79° |
| 2026-05-09 00:01 | -25.58313 | -51.28952 | 23499 ft | 202 kts | 79° |
| 2026-05-09 00:01 | -25.58285 | -51.27427 | 23617 ft | 196 kts | 79° |
| 2026-05-09 00:02 | -25.58257 | -51.25938 | 23702 ft | 191 kts | 77° |
| 2026-05-09 00:02 | -25.58234 | -51.24480 | 23751 ft | 189 kts | 78° |
| 2026-05-09 00:02 | -25.58204 | -51.23018 | 23748 ft | 191 kts | 80° |
| 2026-05-09 00:02 | -25.58176 | -51.21540 | 23739 ft | 193 kts | 79° |
| 2026-05-09 00:03 | -25.58149 | -51.20047 | 23739 ft | 194 kts | 78° |
| 2026-05-09 00:03 | -25.58126 | -51.18544 | 23734 ft | 196 kts | 77° |
| 2026-05-09 00:03 | -25.58097 | -51.17033 | 23764 ft | 196 kts | 77° |
| 2026-05-09 00:03 | -25.58068 | -51.15506 | 23824 ft | 203 kts | 78° |
| 2026-05-09 00:04 | -25.58037 | -51.13908 | 23882 ft | 212 kts | 79° |
| 2026-05-09 00:04 | -25.58007 | -51.12242 | 23942 ft | 221 kts | 80° |
| 2026-05-09 00:04 | -25.57974 | -51.10511 | 23999 ft | 230 kts | 81° |
| 2026-05-09 00:04 | -25.57943 | -51.08715 | 24052 ft | 237 kts | 81° |
| 2026-05-09 00:05 | -25.57912 | -51.06865 | 24116 ft | 244 kts | 81° |
| 2026-05-09 00:05 | -25.57877 | -51.04967 | 24171 ft | 250 kts | 81° |
| 2026-05-09 00:05 | -25.57843 | -51.03026 | 24229 ft | 255 kts | 82° |
| 2026-05-09 00:05 | -25.57806 | -51.01051 | 24285 ft | 259 kts | 82° |
| 2026-05-09 00:06 | -25.57769 | -50.99050 | 24344 ft | 263 kts | 82° |
| 2026-05-09 00:06 | -25.57730 | -50.97019 | 24390 ft | 266 kts | 82° |
| 2026-05-09 00:06 | -25.57691 | -50.94966 | 24443 ft | 268 kts | 82° |
| 2026-05-09 00:06 | -25.57654 | -50.92901 | 24497 ft | 270 kts | 82° |
| 2026-05-09 00:07 | -25.57612 | -50.90814 | 24554 ft | 272 kts | 82° |
| 2026-05-09 00:07 | -25.57570 | -50.88717 | 24610 ft | 273 kts | 82° |
| 2026-05-09 00:07 | -25.57532 | -50.86610 | 24661 ft | 275 kts | 82° |
| 2026-05-09 00:07 | -25.57489 | -50.84497 | 24717 ft | 276 kts | 82° |
| 2026-05-09 00:08 | -25.57446 | -50.82373 | 24769 ft | 277 kts | 82° |
| 2026-05-09 00:08 | -25.57405 | -50.80238 | 24823 ft | 277 kts | 82° |
| 2026-05-09 00:08 | -25.57361 | -50.78107 | 24877 ft | 278 kts | 82° |
| 2026-05-09 00:08 | -25.57316 | -50.75973 | 24931 ft | 278 kts | 82° |
| 2026-05-09 00:09 | -25.57272 | -50.73827 | 24956 ft | 280 kts | 82° |
| 2026-05-09 00:09 | -25.57227 | -50.71664 | 24964 ft | 283 kts | 83° |
| 2026-05-09 00:09 | -25.57183 | -50.69489 | 24964 ft | 283 kts | 83° |
| 2026-05-09 00:09 | -25.57139 | -50.67316 | 24965 ft | 281 kts | 82° |
| 2026-05-09 00:10 | -25.57094 | -50.65168 | 24962 ft | 278 kts | 83° |
| 2026-05-09 00:10 | -25.57047 | -50.63040 | 24961 ft | 276 kts | 83° |
| 2026-05-09 00:10 | -25.57003 | -50.60933 | 24961 ft | 273 kts | 82° |
| 2026-05-09 00:10 | -25.56961 | -50.58848 | 24960 ft | 269 kts | 82° |
| 2026-05-09 00:11 | -25.56914 | -50.56799 | 24964 ft | 264 kts | 83° |
| 2026-05-09 00:11 | -25.56869 | -50.54790 | 24961 ft | 260 kts | 82° |
| 2026-05-09 00:11 | -25.56827 | -50.52801 | 24961 ft | 257 kts | 82° |
| 2026-05-09 00:11 | -25.56783 | -50.50840 | 24964 ft | 254 kts | 82° |
| 2026-05-09 00:12 | -25.56742 | -50.48895 | 24968 ft | 252 kts | 81° |
| 2026-05-09 00:12 | -25.56696 | -50.46966 | 24967 ft | 250 kts | 82° |
| 2026-05-09 00:12 | -25.56655 | -50.45053 | 24969 ft | 248 kts | 82° |
| 2026-05-09 00:12 | -25.56611 | -50.43150 | 24973 ft | 247 kts | 82° |
| 2026-05-09 00:13 | -25.56568 | -50.41256 | 24975 ft | 246 kts | 82° |
| 2026-05-09 00:13 | -25.56524 | -50.39370 | 24971 ft | 245 kts | 82° |
| 2026-05-09 00:13 | -25.56480 | -50.37491 | 24974 ft | 244 kts | 82° |
| 2026-05-09 00:13 | -25.56438 | -50.35619 | 24976 ft | 244 kts | 82° |
| 2026-05-09 00:14 | -25.56395 | -50.33745 | 24968 ft | 243 kts | 81° |
| 2026-05-09 00:14 | -25.56349 | -50.31880 | 24964 ft | 241 kts | 82° |
| 2026-05-09 00:14 | -25.56308 | -50.30032 | 24967 ft | 240 kts | 81° |
| 2026-05-09 00:14 | -25.56263 | -50.28175 | 24810 ft | 248 kts | 82° |
| 2026-05-09 00:15 | -25.56211 | -50.26210 | 24436 ft | 264 kts | 82° |
| 2026-05-09 00:15 | -25.56163 | -50.24140 | 24071 ft | 276 kts | 83° |
| 2026-05-09 00:15 | -25.56113 | -50.21979 | 23707 ft | 286 kts | 84° |
| 2026-05-09 00:15 | -25.56058 | -50.19760 | 23342 ft | 293 kts | 84° |
| 2026-05-09 00:16 | -25.56004 | -50.17490 | 22976 ft | 298 kts | 84° |
| 2026-05-09 00:16 | -25.55949 | -50.15186 | 22608 ft | 302 kts | 84° |
| 2026-05-09 00:16 | -25.55894 | -50.12852 | 22260 ft | 305 kts | 84° |
| 2026-05-09 00:16 | -25.55837 | -50.10499 | 21915 ft | 308 kts | 83° |
| 2026-05-09 00:17 | -25.55777 | -50.08131 | 21567 ft | 309 kts | 84° |
| 2026-05-09 00:17 | -25.55717 | -50.05750 | 21219 ft | 311 kts | 83° |
| 2026-05-09 00:17 | -25.55656 | -50.03368 | 20870 ft | 311 kts | 83° |
| 2026-05-09 00:17 | -25.55596 | -50.00981 | 20521 ft | 311 kts | 83° |
| 2026-05-09 00:18 | -25.55537 | -49.98593 | 20172 ft | 311 kts | 83° |
| 2026-05-09 00:18 | -25.55474 | -49.96208 | 19823 ft | 311 kts | 82° |
| 2026-05-09 00:18 | -25.55411 | -49.93819 | 19475 ft | 311 kts | 82° |
| 2026-05-09 00:18 | -25.55350 | -49.91436 | 19129 ft | 311 kts | 82° |
| 2026-05-09 00:19 | -25.55289 | -49.89077 | 19003 ft | 302 kts | 82° |
| 2026-05-09 00:19 | -25.55230 | -49.86796 | 18979 ft | 291 kts | 81° |
| 2026-05-09 00:19 | -25.55171 | -49.84602 | 18977 ft | 281 kts | 81° |
| 2026-05-09 00:19 | -25.55112 | -49.82467 | 18979 ft | 274 kts | 81° |
| 2026-05-09 00:20 | -25.55055 | -49.80384 | 18979 ft | 268 kts | 81° |
| 2026-05-09 00:20 | -25.55000 | -49.78342 | 18981 ft | 264 kts | 81° |
| 2026-05-09 00:20 | -25.54944 | -49.76330 | 18983 ft | 260 kts | 81° |
| 2026-05-09 00:20 | -25.54892 | -49.74345 | 18982 ft | 257 kts | 80° |
| 2026-05-09 00:21 | -25.54838 | -49.72381 | 18982 ft | 254 kts | 80° |
| 2026-05-09 00:21 | -25.54782 | -49.70436 | 18984 ft | 252 kts | 81° |
| 2026-05-09 00:21 | -25.54730 | -49.68503 | 18985 ft | 251 kts | 81° |
| 2026-05-09 00:21 | -25.54677 | -49.66580 | 18986 ft | 249 kts | 80° |
| 2026-05-09 00:22 | -25.54622 | -49.64666 | 18989 ft | 249 kts | 81° |
| 2026-05-09 00:22 | -25.54569 | -49.62761 | 18989 ft | 248 kts | 80° |
| 2026-05-09 00:22 | -25.54514 | -49.60860 | 18988 ft | 247 kts | 80° |
| 2026-05-09 00:22 | -25.54461 | -49.58960 | 18989 ft | 247 kts | 80° |
| 2026-05-09 00:23 | -25.54405 | -49.57059 | 18989 ft | 247 kts | 81° |
| 2026-05-09 00:23 | -25.54352 | -49.55158 | 18985 ft | 247 kts | 80° |
| 2026-05-09 00:23 | -25.54299 | -49.53259 | 18987 ft | 246 kts | 79° |
| 2026-05-09 00:23 | -25.54243 | -49.51368 | 18990 ft | 246 kts | 80° |
| 2026-05-09 00:24 | -25.54187 | -49.49478 | 18989 ft | 246 kts | 81° |
| 2026-05-09 00:24 | -25.54133 | -49.47592 | 18990 ft | 246 kts | 81° |
| 2026-05-09 00:24 | -25.54080 | -49.45704 | 18990 ft | 245 kts | 81° |
| 2026-05-09 00:24 | -25.54024 | -49.43824 | 18998 ft | 245 kts | 81° |
| 2026-05-09 00:25 | -25.53967 | -49.41941 | 19000 ft | 245 kts | 81° |
| 2026-05-09 00:25 | -25.53911 | -49.40058 | 18999 ft | 245 kts | 81° |
| 2026-05-09 00:25 | -25.53855 | -49.38171 | 19001 ft | 245 kts | 80° |
| 2026-05-09 00:25 | -25.53800 | -49.36282 | 19002 ft | 246 kts | 81° |
| 2026-05-09 00:26 | -25.53741 | -49.34391 | 18995 ft | 246 kts | 81° |
| 2026-05-09 00:26 | -25.53687 | -49.32500 | 18990 ft | 245 kts | 79° |
| 2026-05-09 00:26 | -25.53629 | -49.30615 | 18990 ft | 245 kts | 80° |
| 2026-05-09 00:26 | -25.53571 | -49.28734 | 18990 ft | 244 kts | 81° |
| 2026-05-09 00:27 | -25.53514 | -49.26857 | 18990 ft | 244 kts | 80° |
| 2026-05-09 00:27 | -25.53455 | -49.24982 | 18991 ft | 243 kts | 81° |
| 2026-05-09 00:27 | -25.53399 | -49.23115 | 18995 ft | 243 kts | 81° |
| 2026-05-09 00:27 | -25.53341 | -49.21247 | 18992 ft | 243 kts | 80° |
| 2026-05-09 00:28 | -25.53284 | -49.19376 | 18995 ft | 243 kts | 80° |
| 2026-05-09 00:28 | -25.53226 | -49.17509 | 18997 ft | 242 kts | 80° |
| 2026-05-09 00:28 | -25.53015 | -49.15684 | 19000 ft | 237 kts | 70° |
| 2026-05-09 00:28 | -25.52713 | -49.13898 | 18999 ft | 236 kts | 70° |
| 2026-05-09 00:29 | -25.52408 | -49.12106 | 19001 ft | 236 kts | 70° |
| 2026-05-09 00:29 | -25.52104 | -49.10316 | 19001 ft | 236 kts | 69° |
| 2026-05-09 00:29 | -25.51798 | -49.08527 | 19003 ft | 237 kts | 70° |
| 2026-05-09 00:29 | -25.51493 | -49.06739 | 19003 ft | 237 kts | 70° |
| 2026-05-09 00:30 | -25.51189 | -49.04953 | 19003 ft | 237 kts | 70° |
| 2026-05-09 00:30 | -25.50882 | -49.03163 | 19008 ft | 237 kts | 70° |
| 2026-05-09 00:30 | -25.50578 | -49.01369 | 19008 ft | 237 kts | 70° |
| 2026-05-09 00:30 | -25.50272 | -48.99583 | 19012 ft | 236 kts | 70° |
| 2026-05-09 00:31 | -25.49966 | -48.97793 | 19009 ft | 236 kts | 70° |
| 2026-05-09 00:31 | -25.49661 | -48.96011 | 19002 ft | 236 kts | 70° |
| 2026-05-09 00:31 | -25.49355 | -48.94225 | 18998 ft | 236 kts | 70° |
| 2026-05-09 00:31 | -25.49049 | -48.92439 | 18992 ft | 236 kts | 70° |
| 2026-05-09 00:32 | -25.48742 | -48.90651 | 18991 ft | 237 kts | 70° |
| 2026-05-09 00:32 | -25.48435 | -48.88861 | 18981 ft | 237 kts | 70° |
| 2026-05-09 00:32 | -25.48128 | -48.87074 | 18975 ft | 237 kts | 70° |
| 2026-05-09 00:32 | -25.47821 | -48.85286 | 18966 ft | 236 kts | 70° |
| 2026-05-09 00:33 | -25.47515 | -48.83508 | 18962 ft | 236 kts | 70° |
| 2026-05-09 00:33 | -25.47207 | -48.81727 | 18958 ft | 236 kts | 70° |
| 2026-05-09 00:33 | -25.46901 | -48.79946 | 18948 ft | 236 kts | 70° |
| 2026-05-09 00:33 | -25.46595 | -48.78162 | 18938 ft | 236 kts | 70° |
| 2026-05-09 00:34 | -25.46286 | -48.76379 | 18933 ft | 236 kts | 70° |
| 2026-05-09 00:34 | -25.45977 | -48.74595 | 18918 ft | 237 kts | 70° |
| 2026-05-09 00:34 | -25.45668 | -48.72805 | 18906 ft | 237 kts | 70° |
| 2026-05-09 00:34 | -25.45357 | -48.71009 | 18901 ft | 237 kts | 70° |
| 2026-05-09 00:35 | -25.45049 | -48.69222 | 18903 ft | 236 kts | 70° |
| 2026-05-09 00:35 | -25.44739 | -48.67437 | 18903 ft | 236 kts | 70° |
| 2026-05-09 00:35 | -25.44431 | -48.65661 | 18905 ft | 235 kts | 70° |
| 2026-05-09 00:35 | -25.44123 | -48.63888 | 18908 ft | 235 kts | 69° |
| 2026-05-09 00:36 | -25.43816 | -48.62114 | 18909 ft | 235 kts | 70° |
| 2026-05-09 00:36 | -25.43508 | -48.60342 | 18898 ft | 234 kts | 70° |
| 2026-05-09 00:36 | -25.43203 | -48.58581 | 18902 ft | 233 kts | 69° |
| 2026-05-09 00:36 | -25.42896 | -48.56822 | 18909 ft | 232 kts | 70° |
| 2026-05-09 00:37 | -25.42591 | -48.55068 | 18908 ft | 233 kts | 70° |
| 2026-05-09 00:37 | -25.42284 | -48.53310 | 18899 ft | 233 kts | 69° |
| 2026-05-09 00:37 | -25.41977 | -48.51552 | 18896 ft | 233 kts | 70° |
| 2026-05-09 00:37 | -25.41670 | -48.49792 | 18891 ft | 233 kts | 70° |
| 2026-05-09 00:38 | -25.41364 | -48.48039 | 18893 ft | 232 kts | 69° |
| 2026-05-09 00:38 | -25.41059 | -48.46288 | 18895 ft | 231 kts | 69° |
| 2026-05-09 00:38 | -25.40753 | -48.44547 | 18889 ft | 231 kts | 70° |
| 2026-05-09 00:38 | -25.40449 | -48.42815 | 18894 ft | 230 kts | 69° |
| 2026-05-09 00:39 | -25.40149 | -48.41084 | 18901 ft | 229 kts | 69° |
| 2026-05-09 00:39 | -25.39844 | -48.39360 | 18901 ft | 229 kts | 69° |
| 2026-05-09 00:39 | -25.39542 | -48.37635 | 18905 ft | 229 kts | 69° |
| 2026-05-09 00:39 | -25.39239 | -48.35906 | 18898 ft | 229 kts | 70° |
| 2026-05-09 00:40 | -25.38936 | -48.34177 | 18890 ft | 229 kts | 69° |
| 2026-05-09 00:40 | -25.38632 | -48.32450 | 18885 ft | 228 kts | 69° |
| 2026-05-09 00:40 | -25.38330 | -48.30729 | 18884 ft | 228 kts | 69° |
| 2026-05-09 00:41 | -25.37726 | -48.27307 | 18881 ft | 226 kts | 69° |
| 2026-05-09 00:41 | -25.37426 | -48.25605 | 18884 ft | 226 kts | 69° |
| 2026-05-09 00:41 | -25.37126 | -48.23908 | 18887 ft | 225 kts | 69° |
| 2026-05-09 00:41 | -25.36827 | -48.22213 | 18889 ft | 225 kts | 69° |
| 2026-05-09 00:42 | -25.36530 | -48.20520 | 18890 ft | 225 kts | 68° |
| 2026-05-09 00:42 | -25.36228 | -48.18826 | 18889 ft | 225 kts | 69° |
| 2026-05-09 00:42 | -25.35928 | -48.17123 | 18882 ft | 226 kts | 68° |
| 2026-05-09 00:42 | -25.35625 | -48.15423 | 18881 ft | 226 kts | 69° |
| 2026-05-09 00:43 | -25.35323 | -48.13717 | 18867 ft | 227 kts | 69° |
| 2026-05-09 00:43 | -25.35023 | -48.12010 | 18871 ft | 226 kts | 68° |
| 2026-05-09 00:43 | -25.34720 | -48.10307 | 18879 ft | 227 kts | 69° |
| 2026-05-09 00:43 | -25.34414 | -48.08592 | 18863 ft | 228 kts | 69° |
| 2026-05-09 00:44 | -25.34110 | -48.06877 | 18864 ft | 228 kts | 69° |
| 2026-05-09 00:44 | -25.33806 | -48.05160 | 18865 ft | 228 kts | 68° |
| 2026-05-09 00:44 | -25.33499 | -48.03443 | 18860 ft | 228 kts | 69° |
| 2026-05-09 00:44 | -25.33194 | -48.01731 | 18859 ft | 227 kts | 69° |
| 2026-05-09 00:45 | -25.32891 | -48.00017 | 18868 ft | 227 kts | 69° |
| 2026-05-09 00:45 | -25.32584 | -47.98306 | 18858 ft | 227 kts | 68° |
| 2026-05-09 00:45 | -25.32281 | -47.96594 | 18855 ft | 227 kts | 69° |
| 2026-05-09 00:45 | -25.31975 | -47.94886 | 18859 ft | 227 kts | 68° |
| 2026-05-09 00:46 | -25.31670 | -47.93177 | 18859 ft | 227 kts | 69° |
| 2026-05-09 00:46 | -25.31364 | -47.91469 | 18857 ft | 227 kts | 69° |
| 2026-05-09 00:46 | -25.31059 | -47.89764 | 18857 ft | 227 kts | 69° |
| 2026-05-09 00:46 | -25.30752 | -47.88058 | 18856 ft | 226 kts | 69° |
| 2026-05-09 00:47 | -25.30449 | -47.86352 | 18856 ft | 226 kts | 68° |
| 2026-05-09 00:47 | -25.30144 | -47.84652 | 18854 ft | 226 kts | 68° |
| 2026-05-09 00:47 | -25.29839 | -47.82952 | 18856 ft | 226 kts | 69° |
| 2026-05-09 00:47 | -25.29533 | -47.81252 | 18857 ft | 226 kts | 68° |
| 2026-05-09 00:48 | -25.29227 | -47.79546 | 18852 ft | 226 kts | 69° |
| 2026-05-09 00:48 | -25.28921 | -47.77845 | 18859 ft | 226 kts | 69° |
| 2026-05-09 00:48 | -25.28615 | -47.76142 | 18856 ft | 226 kts | 68° |
| 2026-05-09 00:48 | -25.28309 | -47.74440 | 18853 ft | 226 kts | 68° |
| 2026-05-09 00:49 | -25.28003 | -47.72745 | 18852 ft | 226 kts | 69° |
| 2026-05-09 00:49 | -25.27695 | -47.71048 | 18856 ft | 226 kts | 68° |
| 2026-05-09 00:49 | -25.27390 | -47.69347 | 18856 ft | 225 kts | 68° |
| 2026-05-09 00:49 | -25.27084 | -47.67651 | 18854 ft | 225 kts | 68° |
| 2026-05-09 00:50 | -25.26777 | -47.65956 | 18852 ft | 225 kts | 68° |
| 2026-05-09 00:50 | -25.26473 | -47.64264 | 18855 ft | 225 kts | 68° |
| 2026-05-09 00:50 | -25.26166 | -47.62571 | 18858 ft | 225 kts | 68° |
| 2026-05-09 00:50 | -25.25859 | -47.60877 | 18856 ft | 225 kts | 68° |
| 2026-05-09 00:51 | -25.25552 | -47.59180 | 18854 ft | 225 kts | 68° |
| 2026-05-09 00:51 | -25.25245 | -47.57488 | 18853 ft | 225 kts | 69° |
| 2026-05-09 00:51 | -25.24939 | -47.55798 | 18849 ft | 225 kts | 68° |
| 2026-05-09 00:51 | -25.24633 | -47.54110 | 18854 ft | 224 kts | 68° |
| 2026-05-09 00:52 | -25.24326 | -47.52424 | 18855 ft | 224 kts | 68° |
| 2026-05-09 00:52 | -25.24019 | -47.50737 | 18860 ft | 224 kts | 69° |
| 2026-05-09 00:52 | -25.23713 | -47.49047 | 18855 ft | 225 kts | 68° |
| 2026-05-09 00:52 | -25.23406 | -47.47360 | 18848 ft | 224 kts | 69° |
| 2026-05-09 00:53 | -25.23099 | -47.45676 | 18850 ft | 224 kts | 68° |
| 2026-05-09 00:53 | -25.22792 | -47.43994 | 18858 ft | 224 kts | 68° |
| 2026-05-09 00:53 | -25.22487 | -47.42313 | 18857 ft | 224 kts | 68° |
| 2026-05-09 00:53 | -25.22178 | -47.40630 | 18852 ft | 224 kts | 68° |
| 2026-05-09 00:54 | -25.21872 | -47.38947 | 18851 ft | 223 kts | 68° |
| 2026-05-09 00:54 | -25.21565 | -47.37269 | 18856 ft | 223 kts | 68° |
| 2026-05-09 00:54 | -25.21257 | -47.35588 | 18856 ft | 224 kts | 68° |
| 2026-05-09 00:54 | -25.20949 | -47.33906 | 18851 ft | 224 kts | 68° |
| 2026-05-09 00:55 | -25.20644 | -47.32228 | 18845 ft | 223 kts | 68° |
| 2026-05-09 00:55 | -25.20337 | -47.30557 | 18843 ft | 222 kts | 68° |
| 2026-05-09 00:55 | -25.20031 | -47.28889 | 18843 ft | 222 kts | 67° |
| 2026-05-09 00:55 | -25.19727 | -47.27227 | 18841 ft | 221 kts | 67° |
| 2026-05-09 00:56 | -25.19420 | -47.25566 | 18843 ft | 221 kts | 67° |
| 2026-05-09 00:56 | -25.19116 | -47.23907 | 18844 ft | 220 kts | 68° |
| 2026-05-09 00:56 | -25.18812 | -47.22251 | 18846 ft | 220 kts | 67° |
| 2026-05-09 00:56 | -25.18508 | -47.20599 | 18847 ft | 220 kts | 67° |
| 2026-05-09 00:57 | -25.18203 | -47.18942 | 18847 ft | 220 kts | 67° |
| 2026-05-09 00:57 | -25.17899 | -47.17292 | 18842 ft | 220 kts | 68° |
| 2026-05-09 00:57 | -25.17593 | -47.15637 | 18845 ft | 220 kts | 68° |
| 2026-05-09 00:57 | -25.17290 | -47.13988 | 18837 ft | 220 kts | 67° |
| 2026-05-09 00:58 | -25.16987 | -47.12340 | 18839 ft | 219 kts | 67° |
| 2026-05-09 00:58 | -25.16682 | -47.10698 | 18844 ft | 219 kts | 68° |
| 2026-05-09 00:58 | -25.16379 | -47.09052 | 18845 ft | 219 kts | 67° |
| 2026-05-09 00:58 | -25.16076 | -47.07411 | 18845 ft | 219 kts | 67° |
| 2026-05-09 00:59 | -25.15772 | -47.05766 | 18844 ft | 219 kts | 67° |
| 2026-05-09 00:59 | -25.15467 | -47.04123 | 18844 ft | 219 kts | 67° |
| 2026-05-09 00:59 | -25.15161 | -47.02480 | 18846 ft | 219 kts | 67° |
| 2026-05-09 00:59 | -25.14859 | -47.00839 | 18840 ft | 219 kts | 67° |
| 2026-05-09 01:00 | -25.14553 | -46.99195 | 18841 ft | 218 kts | 67° |
| 2026-05-09 01:00 | -25.14168 | -46.97602 | 18840 ft | 207 kts | 52° |
| 2026-05-09 01:00 | -25.13539 | -46.96180 | 18851 ft | 207 kts | 51° |
| 2026-05-09 01:00 | -25.12911 | -46.94752 | 18840 ft | 207 kts | 52° |
| 2026-05-09 01:01 | -25.12281 | -46.93328 | 18843 ft | 207 kts | 52° |
| 2026-05-09 01:01 | -25.11649 | -46.91902 | 18843 ft | 206 kts | 51° |
| 2026-05-09 01:01 | -25.11018 | -46.90480 | 18844 ft | 206 kts | 52° |
| 2026-05-09 01:01 | -25.10387 | -46.89056 | 18844 ft | 206 kts | 51° |
| 2026-05-09 01:02 | -25.09756 | -46.87636 | 18845 ft | 207 kts | 52° |
| 2026-05-09 01:02 | -25.09124 | -46.86210 | 18844 ft | 207 kts | 51° |
| 2026-05-09 01:02 | -25.08491 | -46.84790 | 18838 ft | 207 kts | 52° |
| 2026-05-09 01:02 | -25.07859 | -46.83366 | 18845 ft | 207 kts | 52° |
| 2026-05-09 01:03 | -25.07226 | -46.81941 | 18844 ft | 207 kts | 52° |
| 2026-05-09 01:03 | -25.06593 | -46.80517 | 18847 ft | 207 kts | 51° |
| 2026-05-09 01:03 | -25.05959 | -46.79095 | 18845 ft | 207 kts | 52° |
| 2026-05-09 01:03 | -25.05325 | -46.77669 | 18850 ft | 207 kts | 52° |
| 2026-05-09 01:04 | -25.04693 | -46.76245 | 18852 ft | 207 kts | 52° |
| 2026-05-09 01:04 | -25.04056 | -46.74818 | 18849 ft | 207 kts | 52° |
| 2026-05-09 01:04 | -25.03421 | -46.73394 | 18848 ft | 207 kts | 52° |
| 2026-05-09 01:04 | -25.02787 | -46.71967 | 18850 ft | 207 kts | 51° |
| 2026-05-09 01:05 | -25.02150 | -46.70543 | 18848 ft | 207 kts | 51° |
| 2026-05-09 01:05 | -25.01515 | -46.69116 | 18849 ft | 207 kts | 52° |
| 2026-05-09 01:05 | -25.00243 | -46.66265 | 18849 ft | 208 kts | 52° |
| 2026-05-09 01:06 | -24.99607 | -46.64836 | 18849 ft | 208 kts | 52° |
| 2026-05-09 01:06 | -24.98969 | -46.63409 | 18850 ft | 208 kts | 52° |
| 2026-05-09 01:06 | -24.98332 | -46.61983 | 18852 ft | 208 kts | 52° |
| 2026-05-09 01:06 | -24.97695 | -46.60558 | 18851 ft | 208 kts | 52° |
| 2026-05-09 01:07 | -24.97058 | -46.59130 | 18852 ft | 207 kts | 52° |
| 2026-05-09 01:07 | -24.96423 | -46.57711 | 18858 ft | 207 kts | 52° |
| 2026-05-09 01:07 | -24.95787 | -46.56289 | 18860 ft | 207 kts | 52° |
| 2026-05-09 01:07 | -24.95152 | -46.54869 | 18858 ft | 207 kts | 52° |
| 2026-05-09 01:08 | -24.94515 | -46.53443 | 18859 ft | 208 kts | 52° |
| 2026-05-09 01:08 | -24.93875 | -46.52016 | 18850 ft | 208 kts | 52° |
| 2026-05-09 01:08 | -24.93236 | -46.50589 | 18849 ft | 207 kts | 52° |
| 2026-05-09 01:08 | -24.92601 | -46.49169 | 18864 ft | 207 kts | 52° |
| 2026-05-09 01:09 | -24.91964 | -46.47746 | 18865 ft | 207 kts | 52° |
| 2026-05-09 01:09 | -24.91324 | -46.46318 | 18854 ft | 208 kts | 52° |
| 2026-05-09 01:09 | -24.90684 | -46.44892 | 18854 ft | 208 kts | 52° |
| 2026-05-09 01:09 | -24.90045 | -46.43466 | 18861 ft | 208 kts | 52° |
| 2026-05-09 01:10 | -24.89404 | -46.42036 | 18864 ft | 208 kts | 52° |
| 2026-05-09 01:10 | -24.88760 | -46.40601 | 18858 ft | 209 kts | 52° |
| 2026-05-09 01:10 | -24.88114 | -46.39164 | 18869 ft | 209 kts | 52° |
| 2026-05-09 01:10 | -24.87469 | -46.37726 | 18864 ft | 210 kts | 52° |
| 2026-05-09 01:11 | -24.86836 | -46.36315 | 18863 ft | 210 kts | 52° |
| 2026-05-09 01:11 | -24.86186 | -46.34870 | 18868 ft | 211 kts | 52° |
| 2026-05-09 01:11 | -24.85536 | -46.33424 | 18860 ft | 210 kts | 52° |
| 2026-05-09 01:11 | -24.84889 | -46.31982 | 18857 ft | 210 kts | 52° |
| 2026-05-09 01:12 | -24.84243 | -46.30546 | 18860 ft | 210 kts | 52° |
| 2026-05-09 01:12 | -24.83599 | -46.29114 | 18862 ft | 209 kts | 51° |
| 2026-05-09 01:12 | -24.82954 | -46.27681 | 18858 ft | 209 kts | 52° |
| 2026-05-09 01:12 | -24.82310 | -46.26251 | 18864 ft | 208 kts | 52° |
| 2026-05-09 01:13 | -24.81666 | -46.24820 | 18866 ft | 209 kts | 52° |
| 2026-05-09 01:13 | -24.81020 | -46.23386 | 18860 ft | 209 kts | 52° |
| 2026-05-09 01:13 | -24.80375 | -46.21955 | 18862 ft | 209 kts | 52° |
| 2026-05-09 01:13 | -24.79730 | -46.20523 | 18860 ft | 209 kts | 51° |
| 2026-05-09 01:14 | -24.79085 | -46.19092 | 18865 ft | 208 kts | 52° |
| 2026-05-09 01:14 | -24.78441 | -46.17664 | 18865 ft | 208 kts | 52° |
| 2026-05-09 01:14 | -24.77797 | -46.16237 | 18863 ft | 208 kts | 52° |
| 2026-05-09 01:14 | -24.77152 | -46.14807 | 18865 ft | 208 kts | 52° |
| 2026-05-09 01:15 | -24.76507 | -46.13379 | 18867 ft | 209 kts | 52° |
| 2026-05-09 01:15 | -24.75861 | -46.11949 | 18864 ft | 209 kts | 52° |
| 2026-05-09 01:15 | -24.75216 | -46.10521 | 18865 ft | 209 kts | 52° |
| 2026-05-09 01:15 | -24.74568 | -46.09086 | 18865 ft | 209 kts | 52° |
| 2026-05-09 01:16 | -24.73923 | -46.07657 | 18866 ft | 209 kts | 52° |
| 2026-05-09 01:16 | -24.73276 | -46.06225 | 18868 ft | 209 kts | 52° |
| 2026-05-09 01:16 | -24.72628 | -46.04795 | 18861 ft | 209 kts | 52° |
| 2026-05-09 01:17 | -24.71336 | -46.01937 | 18871 ft | 209 kts | 52° |
| 2026-05-09 01:17 | -24.70688 | -46.00507 | 18867 ft | 209 kts | 52° |
| 2026-05-09 01:17 | -24.70042 | -45.99081 | 18866 ft | 209 kts | 52° |
| 2026-05-09 01:17 | -24.69396 | -45.97653 | 18864 ft | 208 kts | 52° |
| 2026-05-09 01:18 | -24.68750 | -45.96228 | 18866 ft | 208 kts | 52° |
| 2026-05-09 01:18 | -24.68104 | -45.94801 | 18871 ft | 208 kts | 52° |
| 2026-05-09 01:18 | -24.67459 | -45.93379 | 18873 ft | 208 kts | 52° |
| 2026-05-09 01:18 | -24.66811 | -45.91950 | 18866 ft | 209 kts | 52° |
| 2026-05-09 01:19 | -24.66164 | -45.90521 | 18866 ft | 209 kts | 52° |
| 2026-05-09 01:19 | -24.65515 | -45.89095 | 18865 ft | 209 kts | 52° |
| 2026-05-09 01:19 | -24.64868 | -45.87669 | 18867 ft | 209 kts | 52° |
| 2026-05-09 01:19 | -24.64220 | -45.86240 | 18867 ft | 209 kts | 52° |
| 2026-05-09 01:20 | -24.63573 | -45.84815 | 18871 ft | 208 kts | 52° |
| 2026-05-09 01:20 | -24.62926 | -45.83393 | 18876 ft | 208 kts | 52° |
| 2026-05-09 01:20 | -24.62279 | -45.81971 | 18873 ft | 208 kts | 52° |
| 2026-05-09 01:20 | -24.61634 | -45.80550 | 18874 ft | 208 kts | 52° |
| 2026-05-09 01:21 | -24.60987 | -45.79130 | 18873 ft | 208 kts | 52° |
| 2026-05-09 01:21 | -24.60342 | -45.77707 | 18881 ft | 208 kts | 52° |
| 2026-05-09 01:21 | -24.59695 | -45.76288 | 18882 ft | 208 kts | 52° |
| 2026-05-09 01:21 | -24.59048 | -45.74865 | 18880 ft | 208 kts | 52° |
| 2026-05-09 01:22 | -24.58400 | -45.73444 | 18881 ft | 208 kts | 52° |
| 2026-05-09 01:22 | -24.57752 | -45.72022 | 18881 ft | 208 kts | 52° |
| 2026-05-09 01:22 | -24.57106 | -45.70602 | 18881 ft | 208 kts | 52° |
| 2026-05-09 01:22 | -24.56459 | -45.69182 | 18879 ft | 208 kts | 52° |
| 2026-05-09 01:23 | -24.55811 | -45.67762 | 18884 ft | 208 kts | 52° |
| 2026-05-09 01:23 | -24.55162 | -45.66340 | 18886 ft | 208 kts | 52° |
| 2026-05-09 01:23 | -24.54517 | -45.64923 | 18890 ft | 208 kts | 52° |
| 2026-05-09 01:23 | -24.53868 | -45.63502 | 18886 ft | 208 kts | 52° |
| 2026-05-09 01:24 | -24.53221 | -45.62086 | 18886 ft | 208 kts | 52° |
| 2026-05-09 01:24 | -24.52573 | -45.60666 | 18889 ft | 208 kts | 53° |
| 2026-05-09 01:24 | -24.51924 | -45.59246 | 18889 ft | 208 kts | 52° |
| 2026-05-09 01:24 | -24.51276 | -45.57827 | 18889 ft | 208 kts | 53° |
| 2026-05-09 01:25 | -24.50627 | -45.56405 | 18890 ft | 208 kts | 52° |
| 2026-05-09 01:25 | -24.49977 | -45.54985 | 18892 ft | 208 kts | 52° |
| 2026-05-09 01:25 | -24.49328 | -45.53566 | 18884 ft | 209 kts | 52° |
| 2026-05-09 01:25 | -24.48679 | -45.52145 | 18886 ft | 208 kts | 52° |
| 2026-05-09 01:26 | -24.48029 | -45.50726 | 18888 ft | 208 kts | 52° |
| 2026-05-09 01:26 | -24.47380 | -45.49310 | 18896 ft | 208 kts | 53° |
| 2026-05-09 01:26 | -24.46733 | -45.47895 | 18896 ft | 208 kts | 52° |
| 2026-05-09 01:26 | -24.46083 | -45.46477 | 18893 ft | 208 kts | 52° |
| 2026-05-09 01:27 | -24.45433 | -45.45059 | 18892 ft | 208 kts | 53° |
| 2026-05-09 01:27 | -24.44783 | -45.43641 | 18889 ft | 208 kts | 53° |
| 2026-05-09 01:27 | -24.44133 | -45.42220 | 18892 ft | 208 kts | 53° |
| 2026-05-09 01:27 | -24.43482 | -45.40801 | 18894 ft | 208 kts | 52° |
| 2026-05-09 01:28 | -24.42832 | -45.39383 | 18894 ft | 208 kts | 53° |
| 2026-05-09 01:28 | -24.42182 | -45.37968 | 18899 ft | 208 kts | 53° |
| 2026-05-09 01:28 | -24.41534 | -45.36556 | 18898 ft | 207 kts | 52° |
| 2026-05-09 01:28 | -24.40885 | -45.35142 | 18898 ft | 208 kts | 53° |
| 2026-05-09 01:29 | -24.40235 | -45.33727 | 18892 ft | 207 kts | 52° |
| 2026-05-09 01:29 | -24.39587 | -45.32316 | 18890 ft | 207 kts | 53° |
| 2026-05-09 01:29 | -24.38941 | -45.30910 | 18891 ft | 207 kts | 52° |
| 2026-05-09 01:29 | -24.38294 | -45.29503 | 18890 ft | 206 kts | 52° |
| 2026-05-09 01:30 | -24.37650 | -45.28102 | 18891 ft | 206 kts | 52° |
| 2026-05-09 01:30 | -24.37006 | -45.26701 | 18895 ft | 206 kts | 52° |
| 2026-05-09 01:30 | -24.36361 | -45.25301 | 18895 ft | 205 kts | 52° |
| 2026-05-09 01:30 | -24.35717 | -45.23899 | 18897 ft | 205 kts | 52° |
| 2026-05-09 01:31 | -24.35073 | -45.22503 | 18893 ft | 205 kts | 52° |
| 2026-05-09 01:31 | -24.34430 | -45.21108 | 18898 ft | 205 kts | 52° |
| 2026-05-09 01:31 | -24.33788 | -45.19712 | 18896 ft | 205 kts | 53° |
| 2026-05-09 01:31 | -24.33144 | -45.18318 | 18898 ft | 205 kts | 52° |
| 2026-05-09 01:32 | -24.32501 | -45.16920 | 18895 ft | 205 kts | 52° |
| 2026-05-09 01:32 | -24.31857 | -45.15522 | 18895 ft | 205 kts | 52° |
| 2026-05-09 01:32 | -24.31212 | -45.14125 | 18897 ft | 205 kts | 52° |
| 2026-05-09 01:32 | -24.30570 | -45.12734 | 18903 ft | 205 kts | 52° |
| 2026-05-09 01:33 | -24.29928 | -45.11340 | 18905 ft | 205 kts | 52° |
| 2026-05-09 01:33 | -24.29285 | -45.09949 | 18908 ft | 205 kts | 52° |
| 2026-05-09 01:33 | -24.28642 | -45.08557 | 18908 ft | 205 kts | 52° |
| 2026-05-09 01:33 | -24.27999 | -45.07166 | 18903 ft | 205 kts | 52° |
| 2026-05-09 01:34 | -24.27355 | -45.05772 | 18901 ft | 205 kts | 52° |
| 2026-05-09 01:34 | -24.26711 | -45.04378 | 18900 ft | 205 kts | 52° |
| 2026-05-09 01:34 | -24.26067 | -45.02984 | 18903 ft | 205 kts | 52° |
| 2026-05-09 01:34 | -24.25424 | -45.01594 | 18908 ft | 205 kts | 52° |
| 2026-05-09 01:35 | -24.24780 | -45.00203 | 18911 ft | 204 kts | 52° |
| 2026-05-09 01:35 | -24.24137 | -44.98815 | 18913 ft | 204 kts | 52° |
| 2026-05-09 01:35 | -24.23494 | -44.97424 | 18912 ft | 205 kts | 53° |
| 2026-05-09 01:35 | -24.22852 | -44.96035 | 18912 ft | 205 kts | 52° |
| 2026-05-09 01:36 | -24.22208 | -44.94645 | 18911 ft | 205 kts | 52° |
| 2026-05-09 01:36 | -24.21564 | -44.93256 | 18911 ft | 205 kts | 52° |
| 2026-05-09 01:36 | -24.20919 | -44.91863 | 18909 ft | 205 kts | 52° |
| 2026-05-09 01:36 | -24.20275 | -44.90475 | 18909 ft | 205 kts | 52° |
| 2026-05-09 01:37 | -24.19629 | -44.89083 | 18910 ft | 205 kts | 53° |
| 2026-05-09 01:37 | -24.18984 | -44.87694 | 18910 ft | 205 kts | 52° |
| 2026-05-09 01:37 | -24.18340 | -44.86305 | 18910 ft | 205 kts | 52° |
| 2026-05-09 01:37 | -24.17696 | -44.84913 | 18910 ft | 205 kts | 52° |
| 2026-05-09 01:38 | -24.17052 | -44.83526 | 18911 ft | 205 kts | 52° |
| 2026-05-09 01:38 | -24.16407 | -44.82138 | 18912 ft | 205 kts | 53° |
| 2026-05-09 01:38 | -24.15759 | -44.80746 | 18912 ft | 205 kts | 53° |
| 2026-05-09 01:38 | -24.15115 | -44.79359 | 18911 ft | 205 kts | 53° |
| 2026-05-09 01:39 | -24.14470 | -44.77970 | 18914 ft | 204 kts | 53° |
| 2026-05-09 01:39 | -24.13824 | -44.76582 | 18913 ft | 204 kts | 53° |
| 2026-05-09 01:39 | -24.13178 | -44.75193 | 18912 ft | 205 kts | 53° |
| 2026-05-09 01:39 | -24.12533 | -44.73806 | 18913 ft | 204 kts | 52° |
| 2026-05-09 01:40 | -24.11888 | -44.72421 | 18914 ft | 205 kts | 53° |
| 2026-05-09 01:40 | -24.11242 | -44.71033 | 18913 ft | 205 kts | 53° |
| 2026-05-09 01:40 | -24.10605 | -44.69633 | 18912 ft | 205 kts | 53° |
| 2026-05-09 01:40 | -24.09971 | -44.68234 | 18913 ft | 205 kts | 53° |
| 2026-05-09 01:41 | -24.09338 | -44.66835 | 18912 ft | 205 kts | 53° |
| 2026-05-09 01:41 | -24.08706 | -44.65437 | 18910 ft | 205 kts | 53° |
| 2026-05-09 01:41 | -24.08072 | -44.64040 | 18911 ft | 205 kts | 53° |
| 2026-05-09 01:41 | -24.07439 | -44.62640 | 18911 ft | 205 kts | 54° |
| 2026-05-09 01:42 | -24.06806 | -44.61245 | 18912 ft | 205 kts | 53° |
| 2026-05-09 01:42 | -24.06174 | -44.59849 | 18912 ft | 205 kts | 53° |
| 2026-05-09 01:42 | -24.05541 | -44.58455 | 18911 ft | 205 kts | 54° |
| 2026-05-09 01:42 | -24.04908 | -44.57059 | 18915 ft | 205 kts | 53° |
| 2026-05-09 01:43 | -24.04276 | -44.55666 | 18914 ft | 205 kts | 54° |
| 2026-05-09 01:43 | -24.03644 | -44.54271 | 18914 ft | 205 kts | 54° |
| 2026-05-09 01:43 | -24.03011 | -44.52878 | 18915 ft | 205 kts | 54° |
| 2026-05-09 01:43 | -24.02378 | -44.51484 | 18915 ft | 205 kts | 54° |
| 2026-05-09 01:44 | -24.01746 | -44.50090 | 18914 ft | 205 kts | 54° |
| 2026-05-09 01:44 | -24.01112 | -44.48696 | 18916 ft | 205 kts | 54° |
| 2026-05-09 01:44 | -24.00479 | -44.47302 | 18917 ft | 205 kts | 54° |
| 2026-05-09 01:44 | -23.99847 | -44.45909 | 18919 ft | 205 kts | 54° |
| 2026-05-09 01:45 | -23.99212 | -44.44514 | 18918 ft | 205 kts | 54° |
| 2026-05-09 01:45 | -23.98579 | -44.43122 | 18915 ft | 205 kts | 54° |
| 2026-05-09 01:45 | -23.97944 | -44.41727 | 18915 ft | 205 kts | 54° |
| 2026-05-09 01:45 | -23.97310 | -44.40335 | 18915 ft | 205 kts | 54° |
| 2026-05-09 01:46 | -23.96676 | -44.38942 | 18917 ft | 205 kts | 54° |
| 2026-05-09 01:46 | -23.96041 | -44.37547 | 18920 ft | 205 kts | 54° |
| 2026-05-09 01:46 | -23.95407 | -44.36155 | 18923 ft | 204 kts | 54° |
| 2026-05-09 01:46 | -23.94772 | -44.34762 | 18921 ft | 205 kts | 54° |
| 2026-05-09 01:47 | -23.94138 | -44.33368 | 18918 ft | 204 kts | 54° |
| 2026-05-09 01:47 | -23.93506 | -44.31984 | 18916 ft | 204 kts | 54° |
| 2026-05-09 01:47 | -23.92873 | -44.30596 | 18918 ft | 204 kts | 54° |
| 2026-05-09 01:47 | -23.92242 | -44.29210 | 18922 ft | 203 kts | 54° |
| 2026-05-09 01:48 | -23.91610 | -44.27829 | 18922 ft | 203 kts | 54° |
| 2026-05-09 01:48 | -23.90980 | -44.26447 | 18921 ft | 203 kts | 54° |
| 2026-05-09 01:48 | -23.90350 | -44.25067 | 18923 ft | 203 kts | 54° |
| 2026-05-09 01:48 | -23.89725 | -44.23683 | 18928 ft | 203 kts | 55° |
| 2026-05-09 01:49 | -23.89628 | -44.23462 | 18930 ft | 203 kts | 55° |